Terminal Aerodrome Forecast
Issued by NWS Charleston, WV

Current Version | Previous Version | Graphics & Text | Print | Product List | Glossary Off
Versions: 1 2 3 4 5 6 7 8 9 10 11 12 13 14 15 16 17 18 19 20 21 22 23 24 25 26

000
FTUS41 KRLX 291120
TAFEKN
TAF
KEKN 291120Z 2912/3012 00000KT 4SM BR SCT006
     FM291300 00000KT 6SM HZ SCT035
     FM291600 00000KT P6SM SCT035
     FM291800 00000KT P6SM VCTS SCT035CB
     FM292000 VRB03KT P6SM BKN035
     FM300400 00000KT P6SM BKN035
     FM300600 00000KT 6SM BR VCTS SCT040CB=

USA.gov is the U.S. government's official web portal to all federal, state and local government web resources and services.